createdAt,value
2023-05-04T00:03:36.940Z,102005.94
2023-05-04T00:08:42.118Z,102008.72
2023-05-04T00:13:44.696Z,102009.38
2023-05-04T00:18:47.222Z,101999.38
2023-05-04T00:23:51.118Z,101984.34
2023-05-04T00:28:53.655Z,101980.41
2023-05-04T00:33:56.373Z,101978.38
2023-05-04T00:39:00.244Z,101982.03
2023-05-04T00:44:04.499Z,101979.31
2023-05-04T00:49:08.473Z,101962.94
2023-05-04T00:54:12.636Z,101958.72
2023-05-04T00:59:15.229Z,101960.38
2023-05-04T01:04:17.976Z,101956.75
2023-05-04T01:09:28.284Z,101949.63
2023-05-04T01:14:31.642Z,101937.38
2023-05-04T01:19:34.827Z,101935.53
2023-05-04T01:24:40.943Z,101936.47
2023-05-04T01:29:46.544Z,101943.78
2023-05-04T01:34:49.354Z,101929.34
2023-05-04T01:39:55.125Z,101929.16
2023-05-04T01:44:57.824Z,101933.84
2023-05-04T01:50:01.128Z,101930.16
2023-05-04T01:55:05.504Z,101937.28
2023-05-04T02:00:09.616Z,101943.41
2023-05-04T02:05:18.582Z,101929.78
2023-05-04T02:10:22.583Z,101927.84
2023-05-04T02:15:25.292Z,101928.97
2023-05-04T02:20:27.902Z,101923.59
2023-05-04T02:25:32.245Z,101927.34
2023-05-04T02:30:34.861Z,101922.53
2023-05-04T02:35:37.460Z,101911.50
2023-05-04T02:40:42.724Z,101902.47
2023-05-04T02:45:45.340Z,101910.09
2023-05-04T02:50:47.950Z,101902.69
2023-05-04T02:55:51.916Z,101906.00
2023-05-04T03:00:55.543Z,101899.78
2023-05-04T03:05:58.117Z,101900.28
2023-05-04T03:11:02.183Z,101894.09
2023-05-04T03:16:06.192Z,101891.03
2023-05-04T03:21:08.906Z,101896.94
2023-05-04T03:26:13.571Z,101882.66
2023-05-04T03:31:16.490Z,101888.78
2023-05-04T03:36:19.104Z,101880.63
2023-05-04T03:41:23.109Z,101887.19
2023-05-04T03:46:26.304Z,101883.22
2023-05-04T03:51:29.307Z,101885.31
2023-05-04T03:56:33.246Z,101892.53
2023-05-04T04:01:35.934Z,101884.94
2023-05-04T04:06:39.305Z,101878.78
2023-05-04T04:11:45.245Z,101881.53
2023-05-04T04:16:48.371Z,101884.16
2023-05-04T04:21:51.087Z,101888.28
2023-05-04T04:26:55.044Z,101887.75
2023-05-04T04:31:57.689Z,101871.78
2023-05-04T04:37:00.992Z,101872.94
2023-05-04T04:42:04.886Z,101876.72
2023-05-04T04:47:07.707Z,101870.19
2023-05-04T04:52:11.881Z,101885.50
2023-05-04T04:57:16.644Z,101866.69
2023-05-04T05:02:19.954Z,101863.88
2023-05-04T05:07:22.705Z,101870.09
2023-05-04T05:12:26.753Z,101866.03
2023-05-04T05:17:29.483Z,101866.38
2023-05-04T05:22:32.180Z,101862.44
2023-05-04T05:27:36.518Z,101866.81
2023-05-04T05:32:39.343Z,101856.31
2023-05-04T05:37:42.236Z,101856.16
2023-05-04T05:42:46.294Z,101850.94
2023-05-04T05:47:48.983Z,101843.19
2023-05-04T05:52:51.685Z,101801.88
2023-05-04T05:57:55.951Z,101857.94
2023-05-04T06:02:59.108Z,101849.00
2023-05-04T06:08:01.809Z,101825.72
2023-05-04T06:13:05.853Z,101846.47
2023-05-04T06:18:08.509Z,101843.84
2023-05-04T06:23:11.123Z,101845.47
2023-05-04T06:28:15.022Z,101842.47
2023-05-04T06:33:17.630Z,101842.91
2023-05-04T06:38:20.401Z,101839.72
2023-05-04T06:43:24.266Z,101848.44
2023-05-04T06:48:27.275Z,101838.84
2023-05-04T06:53:29.845Z,101827.03
2023-05-04T06:58:33.750Z,101829.44
2023-05-04T07:03:36.984Z,101825.72
2023-05-04T07:08:39.640Z,101825.84
2023-05-04T07:13:43.507Z,101820.44
2023-05-04T07:18:46.282Z,101822.03
2023-05-04T07:23:48.814Z,101813.28
2023-05-04T07:28:53.097Z,101806.47
2023-05-04T07:33:55.668Z,101804.53
2023-05-04T07:38:58.289Z,101809.53
2023-05-04T07:44:06.657Z,101803.44
2023-05-04T07:49:10.537Z,101796.25
2023-05-04T07:54:13.100Z,101782.66
2023-05-04T07:59:18.730Z,101779.25
2023-05-04T08:04:21.443Z,101792.31
2023-05-04T08:09:24.005Z,101779.84
2023-05-04T08:14:27.876Z,101773.53
2023-05-04T08:19:30.895Z,101768.44
2023-05-04T08:24:33.450Z,101756.97
2023-05-04T08:29:37.645Z,101755.13
2023-05-04T08:34:40.580Z,101758.41
2023-05-04T08:39:43.484Z,101747.81
2023-05-04T08:44:47.507Z,101671.25
2023-05-04T08:49:50.134Z,101745.91
2023-05-04T08:54:55.126Z,101742.47
2023-05-04T09:00:01.299Z,101735.69
2023-05-04T09:05:04.516Z,101737.94
2023-05-04T09:10:08.550Z,101735.31
2023-05-04T09:15:19.724Z,101723.31
2023-05-04T09:20:22.561Z,101711.69
2023-05-04T09:25:25.329Z,101701.63
2023-05-04T09:30:29.268Z,101713.69
2023-05-04T09:35:34.088Z,101707.72
2023-05-04T09:40:38.724Z,101708.69
2023-05-04T09:45:43.728Z,101696.25
2023-05-04T09:50:54.414Z,101693.09
2023-05-04T09:56:11.144Z,101665.44
2023-05-04T10:01:15.430Z,101680.50
2023-05-04T10:06:18.365Z,101673.53
2023-05-04T10:11:21.256Z,101672.25
2023-05-04T10:16:34.499Z,101661.94
2023-05-04T10:21:49.601Z,101660.13
2023-05-04T10:27:03.235Z,101648.44
2023-05-04T10:32:18.322Z,101646.94
2023-05-04T10:37:21.707Z,101631.50
2023-05-04T10:42:24.296Z,101632.56
2023-05-04T10:47:32.741Z,101618.47
2023-05-04T10:52:46.676Z,101605.56
2023-05-04T10:57:50.834Z,101604.94
2023-05-04T11:03:04.043Z,101588.13
2023-05-04T11:08:16.583Z,101571.81
2023-05-04T11:13:19.543Z,101581.59
2023-05-04T11:18:30.840Z,101562.09
2023-05-04T11:23:33.990Z,101553.03
2023-05-04T11:28:37.966Z,101545.50
2023-05-04T11:33:47.957Z,101542.63
2023-05-04T11:38:51.002Z,101520.09
2023-05-04T11:43:54.118Z,101515.59
2023-05-04T11:48:58.035Z,101505.59
2023-05-04T11:54:01.118Z,101492.72
2023-05-04T11:59:10.466Z,101473.72
2023-05-04T12:04:14.477Z,101485.84
2023-05-04T12:09:17.400Z,101485.22
2023-05-04T12:14:20.665Z,101473.69
2023-05-04T12:19:24.739Z,101472.97
2023-05-04T12:24:27.942Z,101471.56
2023-05-04T12:29:30.575Z,101466.69
2023-05-04T12:34:34.713Z,101462.28
2023-05-04T12:39:37.557Z,101444.31
2023-05-04T12:44:40.103Z,101436.38
2023-05-04T12:49:44.063Z,101426.38
2023-05-04T12:54:46.609Z,101419.75
2023-05-04T12:59:49.166Z,101416.34
2023-05-04T13:04:53.282Z,101398.16
2023-05-04T13:09:55.865Z,101388.88
2023-05-04T13:14:59.401Z,101388.38
2023-05-04T13:20:06.416Z,101384.81
2023-05-04T13:25:09.860Z,101373.59
2023-05-04T13:30:13.194Z,101370.44
2023-05-04T13:35:17.436Z,101374.59
2023-05-04T13:40:20.007Z,101373.56
2023-05-04T13:45:22.685Z,101366.53
2023-05-04T13:50:26.597Z,101353.41
2023-05-04T13:55:29.230Z,101325.53
2023-05-04T14:00:32.188Z,101339.38
2023-05-04T14:05:36.492Z,101338.94
2023-05-04T14:10:39.378Z,101326.34
2023-05-04T14:15:42.338Z,101308.44
2023-05-04T14:20:46.301Z,101300.66
2023-05-04T14:25:52.346Z,101281.50
2023-05-04T14:30:57.734Z,101263.28
2023-05-04T14:36:01.823Z,101257.72
2023-05-04T14:41:05.838Z,101239.84
2023-05-04T14:46:09.182Z,101236.22
2023-05-04T14:51:13.809Z,101260.03
2023-05-04T14:56:16.408Z,101249.78
2023-05-04T15:01:18.988Z,101244.28
2023-05-04T15:06:22.896Z,101233.09
2023-05-04T15:11:26.001Z,101223.59
2023-05-04T15:16:32.161Z,101223.53
2023-05-04T15:21:36.331Z,101215.25
2023-05-04T15:26:38.881Z,101200.59
2023-05-04T15:31:41.505Z,101201.97
2023-05-04T15:36:45.465Z,101199.94
2023-05-04T15:41:48.339Z,101200.13
2023-05-04T15:46:51.439Z,101196.09
2023-05-04T15:51:55.906Z,101193.06
2023-05-04T15:56:58.697Z,101207.09
2023-05-04T16:02:01.718Z,101205.75
2023-05-04T16:07:05.602Z,101215.03
2023-05-04T16:12:08.918Z,101214.00
2023-05-04T16:17:11.860Z,101200.19
2023-05-04T16:22:15.795Z,101194.44
2023-05-04T16:27:18.347Z,101179.94
2023-05-04T16:32:21.270Z,101186.84
2023-05-04T16:37:25.235Z,101183.66
2023-05-04T16:42:27.755Z,101178.06
2023-05-04T16:47:30.964Z,101170.16
2023-05-04T16:52:34.962Z,101162.75
2023-05-04T16:57:37.541Z,101167.94
2023-05-04T17:02:40.176Z,101154.75
2023-05-04T17:07:44.260Z,101158.94
2023-05-04T17:12:46.859Z,101152.66
2023-05-04T17:17:49.659Z,101159.59
2023-05-04T17:22:57.760Z,101165.34
2023-05-04T17:28:00.561Z,101164.00
2023-05-04T17:33:03.208Z,101161.13
2023-05-04T17:38:07.799Z,101151.50
2023-05-04T17:43:10.875Z,101150.47
2023-05-04T17:48:13.554Z,101150.78
2023-05-04T17:53:17.541Z,101108.75
2023-05-04T17:58:20.369Z,101161.38
2023-05-04T18:03:23.001Z,101164.72
2023-05-04T18:08:27.254Z,101159.16
2023-05-04T18:13:30.315Z,101158.28
2023-05-04T18:18:32.989Z,101147.34
2023-05-04T18:23:36.889Z,101152.34
2023-05-04T18:28:39.570Z,101160.00
2023-05-04T18:33:42.373Z,101159.63
2023-05-04T18:38:49.581Z,101168.31
2023-05-04T18:43:52.153Z,101164.88
2023-05-04T18:48:56.130Z,101169.38
2023-05-04T18:54:02.104Z,101177.00
2023-05-04T18:59:05.886Z,101174.28
2023-05-04T19:04:08.502Z,101173.53
2023-05-04T19:09:14.337Z,101190.41
2023-05-04T19:14:17.689Z,101187.34
2023-05-04T19:19:20.680Z,101190.63
2023-05-04T19:24:24.640Z,101184.19
2023-05-04T19:29:28.143Z,101184.13
2023-05-04T19:34:30.675Z,101190.94
2023-05-04T19:39:34.558Z,101194.94
2023-05-04T19:44:37.236Z,101155.69
2023-05-04T19:49:39.914Z,101183.03
2023-05-04T19:54:44.334Z,101190.41
2023-05-04T19:59:47.355Z,101184.75
2023-05-04T20:04:50.936Z,101191.13
2023-05-04T20:09:54.962Z,101189.91
2023-05-04T20:14:57.883Z,101184.97
2023-05-04T20:20:02.207Z,101179.38
2023-05-04T20:25:06.652Z,101173.91
2023-05-04T20:30:10.211Z,101170.78
2023-05-04T20:35:12.920Z,101176.91
2023-05-04T20:40:17.766Z,101165.38
2023-05-04T20:45:20.639Z,101170.88
2023-05-04T20:50:23.298Z,101162.72
2023-05-04T20:55:27.470Z,101155.09
2023-05-04T21:00:32.996Z,101155.66
2023-05-04T21:05:41.725Z,101142.91
2023-05-04T21:10:46.449Z,101126.22
2023-05-04T21:15:49.108Z,101123.66
2023-05-04T21:20:51.887Z,101127.66
2023-05-04T21:26:02.642Z,101135.97
2023-05-04T21:31:07.713Z,101125.28
2023-05-04T21:36:14.330Z,101122.50
2023-05-04T21:41:18.337Z,101107.81
2023-05-04T21:46:21.068Z,101032.47
2023-05-04T21:51:23.689Z,101114.75
2023-05-04T21:56:27.767Z,101114.91
2023-05-04T22:01:30.448Z,101117.88
2023-05-04T22:06:33.143Z,101114.78
2023-05-04T22:11:37.141Z,101111.84
2023-05-04T22:16:39.816Z,101116.81
2023-05-04T22:21:42.402Z,101111.00
2023-05-04T22:26:46.652Z,101108.06
2023-05-04T22:31:49.235Z,101114.13
2023-05-04T22:36:51.787Z,101112.28
2023-05-04T22:41:55.634Z,101115.13
2023-05-04T22:46:58.254Z,101125.53
2023-05-04T22:52:00.886Z,101101.88
2023-05-04T22:57:04.986Z,101126.84
2023-05-04T23:02:08.104Z,101123.00
2023-05-04T23:07:10.708Z,101119.88
2023-05-04T23:12:15.060Z,101119.19
2023-05-04T23:17:17.632Z,101099.19
2023-05-04T23:22:20.175Z,101119.31
2023-05-04T23:27:24.148Z,101102.44
2023-05-04T23:32:26.759Z,101130.78
2023-05-04T23:37:31.460Z,101137.13
2023-05-04T23:42:35.316Z,101136.44
2023-05-04T23:47:37.991Z,101138.16
2023-05-04T23:52:40.918Z,101126.44
2023-05-04T23:57:45.374Z,101124.72
